Time;durP1;ratioP1;P1;durP2;ratioP2;P2;SDS_P1;SDS_P2;PMS_P1;PMS_P2;Temp;Humidity;BMP_temperature;BMP_pressure;BME280_temperature;BME280_humidity;BME280_pressure;Samples;Min_cycle;Max_cycle;Signal;HPM_P1;HPM_P2
2022/09/16 00:01:18;;;;;;;;;;;;;;;13.80;71.99;100993.25;5119582;27;19920;-49
2022/09/16 00:03:44;;;;;;;;;;;;;;;13.81;71.74;101002.94;5132098;27;19911;-47
2022/09/16 00:06:17;;;;;;;;;;;;;;;13.82;71.94;100991.28;5090544;28;19984;-47
2022/09/16 00:08:44;;;;;;;;;;;;;;;13.84;71.99;101000.06;5118597;27;19911;-48
2022/09/16 00:11:12;;;;;;;;;;;;;;;13.86;72.35;100987.44;5130432;27;19957;-48
2022/09/16 00:13:37;;;;;;;;;;;;;;;13.85;72.08;100994.59;5114827;27;20329;-49
2022/09/16 00:16:05;;;;;;;;;;;;;;;13.84;71.74;100994.69;5116121;27;19973;-48
2022/09/16 00:18:31;;;;;;;;;;;;;;;13.79;72.53;100994.19;5126802;27;19919;-48
2022/09/16 00:20:56;;;;;;;;;;;;;;;13.73;72.13;100986.63;5124386;27;19926;-48
2022/09/16 00:23:21;;;;;;;;;;;;;;;13.72;71.71;100983.09;5115112;27;20259;-48
2022/09/16 00:25:54;;;;;;;;;;;;;;;13.69;72.00;100977.97;5128359;27;19954;-47
2022/09/16 00:28:20;;;;;;;;;;;;;;;13.66;71.83;100978.22;5110627;27;19956;-48
2022/09/16 00:30:46;;;;;;;;;;;;;;;13.68;71.96;100984.31;5126902;27;19916;-48
2022/09/16 00:33:11;;;;;;;;;;;;;;;13.67;71.92;100976.38;5125989;27;19922;-49
2022/09/16 00:35:36;;;;;;;;;;;;;;;13.64;73.03;100978.31;5127902;27;19912;-49
2022/09/16 00:38:01;;;;;;;;;;;;;;;13.64;73.50;100989.00;5112132;27;20545;-49
2022/09/16 00:40:27;;;;;;;;;;;;;;;13.53;73.52;100980.06;5124572;27;20282;-49
2022/09/16 00:42:52;;;;;;;;;;;;;;;13.48;73.58;100974.22;5125164;27;19915;-47
2022/09/16 00:45:21;;;;;;;;;;;;;;;13.48;73.17;100968.88;5117217;27;19916;-47
2022/09/16 00:47:51;;;;;;;;;;;;;;;13.45;73.30;100972.63;5123855;27;20270;-47
2022/09/16 00:50:34;;;;;;;;;;;;;;;13.43;73.18;100966.53;5106456;27;19920;-49
2022/09/16 00:53:03;;;;;;;;;;;;;;;13.42;73.18;100958.66;5104813;28;19915;-49
2022/09/16 00:55:31;;;;;;;;;;;;;;;13.38;72.97;100964.22;5107305;28;19923;-49
2022/09/16 00:57:58;;;;;;;;;;;;;;;13.36;72.83;100963.47;5113364;27;19920;-48
2022/09/16 01:00:24;;;;;;;;;;;;;;;13.32;72.86;100959.28;5123654;27;19924;-50
2022/09/16 01:02:51;;;;;;;;;;;;;;;13.29;73.23;100961.34;5130426;27;19919;-48
2022/09/16 01:05:21;;;;;;;;;;;;;;;13.26;73.04;100965.09;5129599;27;19915;-51
2022/09/16 01:07:50;;;;;;;;;;;;;;;13.25;72.68;100962.50;5128285;27;20361;-48
2022/09/16 01:10:20;;;;;;;;;;;;;;;13.22;72.62;100958.22;5130322;27;20377;-48
2022/09/16 01:12:47;;;;;;;;;;;;;;;13.17;72.84;100958.56;5127194;27;19926;-48
2022/09/16 01:15:14;;;;;;;;;;;;;;;13.14;72.68;100963.28;5099825;28;19916;-49
2022/09/16 01:17:51;;;;;;;;;;;;;;;13.05;73.17;100956.78;5121066;28;19919;-49
2022/09/16 01:20:23;;;;;;;;;;;;;;;12.98;73.06;100960.00;5099514;28;20018;-51
2022/09/16 01:22:59;;;;;;;;;;;;;;;12.93;72.87;100965.66;5127599;28;20583;-50
2022/09/16 01:25:27;;;;;;;;;;;;;;;12.89;73.25;100965.03;5130709;28;19920;-49
2022/09/16 01:28:11;;;;;;;;;;;;;;;12.85;73.40;100960.00;5129880;28;20349;-52
2022/09/16 01:30:45;;;;;;;;;;;;;;;12.80;73.22;100956.84;5103616;28;19960;-47
2022/09/16 01:33:19;;;;;;;;;;;;;;;12.78;73.05;100958.75;5128406;28;19916;-47
2022/09/16 01:35:44;;;;;;;;;;;;;;;12.77;73.01;100965.06;5112834;28;19915;-48
2022/09/16 01:38:23;;;;;;;;;;;;;;;12.77;73.53;100965.91;5109237;28;19916;-54
2022/09/16 01:41:08;;;;;;;;;;;;;;;12.73;73.15;100964.41;5102576;28;19927;-50
2022/09/16 01:43:55;;;;;;;;;;;;;;;12.70;73.44;100961.94;5112719;28;19955;-49
2022/09/16 01:46:36;;;;;;;;;;;;;;;12.67;73.17;100957.66;5102291;28;19953;-48
2022/09/16 01:49:13;;;;;;;;;;;;;;;12.63;73.70;100958.84;5106656;28;19915;-49
2022/09/16 01:51:45;;;;;;;;;;;;;;;12.62;73.80;100962.50;5124162;28;19915;-48
2022/09/16 01:54:28;;;;;;;;;;;;;;;12.59;72.98;100948.50;5127011;28;19915;-48
2022/09/16 01:56:56;;;;;;;;;;;;;;;12.53;73.74;100948.94;5100671;28;19919;-48
2022/09/16 01:59:25;;;;;;;;;;;;;;;12.49;74.20;100961.63;5127631;28;19932;-47
2022/09/16 02:01:53;;;;;;;;;;;;;;;12.47;74.13;100964.41;5132319;28;19919;-49
2022/09/16 02:04:22;;;;;;;;;;;;;;;12.44;74.52;100959.31;5132394;28;19994;-47
2022/09/16 02:06:50;;;;;;;;;;;;;;;12.40;74.66;100964.94;5114960;28;20388;-48
2022/09/16 02:09:19;;;;;;;;;;;;;;;12.38;74.29;100974.84;5127098;28;19937;-49
2022/09/16 02:11:49;;;;;;;;;;;;;;;12.37;74.62;100966.00;5119537;28;19916;-47
2022/09/16 02:14:20;;;;;;;;;;;;;;;12.38;74.18;100961.50;5130559;27;19919;-47
2022/09/16 02:16:50;;;;;;;;;;;;;;;12.35;75.04;100967.06;5118772;27;20239;-48
2022/09/16 02:19:25;;;;;;;;;;;;;;;12.39;74.66;100968.56;5102723;27;19915;-48
2022/09/16 02:21:51;;;;;;;;;;;;;;;12.42;75.85;100971.03;5133973;27;20388;-49
2022/09/16 02:24:19;;;;;;;;;;;;;;;12.37;75.51;100971.34;5125551;27;20366;-48
2022/09/16 02:26:46;;;;;;;;;;;;;;;12.35;75.14;100973.25;5134452;27;19922;-48
2022/09/16 02:29:14;;;;;;;;;;;;;;;12.36;74.57;100968.78;5114160;27;19953;-50
2022/09/16 02:31:42;;;;;;;;;;;;;;;12.35;75.35;100959.91;5133267;27;19916;-49
2022/09/16 02:34:24;;;;;;;;;;;;;;;12.34;74.81;100960.88;5131489;27;19911;-48
2022/09/16 02:36:52;;;;;;;;;;;;;;;12.37;74.93;100963.34;5128035;27;20370;-47
2022/09/16 02:39:19;;;;;;;;;;;;;;;12.43;74.79;100967.41;5108251;27;19915;-47
2022/09/16 02:41:48;;;;;;;;;;;;;;;12.47;74.11;100963.53;5133228;27;19922;-49
2022/09/16 02:44:13;;;;;;;;;;;;;;;12.52;75.35;100961.41;5133141;27;20370;-47
2022/09/16 02:46:51;;;;;;;;;;;;;;;12.54;75.09;100962.19;5111906;27;19968;-47
2022/09/16 02:49:17;;;;;;;;;;;;;;;12.55;75.21;100960.34;5108632;27;19916;-48
2022/09/16 02:51:45;;;;;;;;;;;;;;;12.56;74.89;100960.25;5126469;27;19911;-49
2022/09/16 02:54:10;;;;;;;;;;;;;;;12.60;74.27;100972.41;5133968;27;19922;-48
2022/09/16 02:56:37;;;;;;;;;;;;;;;12.62;74.69;100964.31;5129160;27;19915;-50
2022/09/16 02:59:04;;;;;;;;;;;;;;;12.59;75.13;100961.84;5131944;27;20394;-49
2022/09/16 03:01:32;;;;;;;;;;;;;;;12.57;74.44;100967.28;5132934;27;19919;-47
2022/09/16 03:03:58;;;;;;;;;;;;;;;12.58;74.81;100965.47;5115256;27;19919;-47
2022/09/16 03:06:24;;;;;;;;;;;;;;;12.53;74.68;100963.16;5132102;27;19943;-47
2022/09/16 03:08:50;;;;;;;;;;;;;;;12.52;74.51;100961.41;5112870;27;20385;-49
2022/09/16 03:11:46;;;;;;;;;;;;;;;12.52;74.85;100965.91;5130704;27;19938;-47
2022/09/16 03:14:30;;;;;;;;;;;;;;;12.48;74.81;100960.78;5092978;27;19966;-48
2022/09/16 03:17:14;;;;;;;;;;;;;;;12.51;74.50;100959.72;5097192;28;20198;-46
2022/09/16 03:19:54;;;;;;;;;;;;;;;12.50;75.24;100955.34;5115863;27;20014;-48
2022/09/16 03:22:37;;;;;;;;;;;;;;;12.37;75.26;100931.31;5125109;27;19919;-48
2022/09/16 03:25:03;;;;;;;;;;;;;;;12.52;75.14;100953.41;5106431;27;19946;-47
2022/09/16 03:27:31;;;;;;;;;;;;;;;12.55;75.07;100960.34;5133167;27;19959;-47
2022/09/16 03:30:05;;;;;;;;;;;;;;;12.56;75.52;100957.59;5114283;27;19922;-49
2022/09/16 03:32:33;;;;;;;;;;;;;;;12.57;75.51;100953.94;5118265;27;20026;-48
2022/09/16 03:35:01;;;;;;;;;;;;;;;12.56;75.43;100951.38;5116607;27;20022;-47
2022/09/16 03:37:27;;;;;;;;;;;;;;;12.56;75.17;100957.59;5129139;27;19916;-47
2022/09/16 03:39:57;;;;;;;;;;;;;;;12.56;74.61;100954.03;5132354;27;19927;-47
2022/09/16 03:42:22;;;;;;;;;;;;;;;12.53;74.78;100952.47;5114132;27;19915;-46
2022/09/16 03:44:48;;;;;;;;;;;;;;;12.53;74.99;100951.59;5134827;27;20388;-47
2022/09/16 03:47:14;;;;;;;;;;;;;;;12.50;75.33;100944.69;5132163;27;20472;-47
2022/09/16 03:49:39;;;;;;;;;;;;;;;12.45;74.91;100945.00;5128104;27;20393;-48
2022/09/16 03:52:04;;;;;;;;;;;;;;;12.43;74.74;100954.91;5095678;27;19920;-48
2022/09/16 03:54:30;;;;;;;;;;;;;;;12.39;75.21;100952.56;5116159;27;19911;-47
2022/09/16 03:56:55;;;;;;;;;;;;;;;12.37;75.16;100947.31;5131971;27;19945;-47
2022/09/16 03:59:21;;;;;;;;;;;;;;;12.36;75.34;100950.13;5131489;27;19932;-49
2022/09/16 04:01:46;;;;;;;;;;;;;;;12.35;75.48;100949.25;5131706;27;20251;-49
2022/09/16 04:04:12;;;;;;;;;;;;;;;12.33;75.05;100950.31;5132685;27;19915;-51
2022/09/16 04:06:37;;;;;;;;;;;;;;;12.36;75.20;100955.44;5131369;27;19916;-47
2022/09/16 04:09:03;;;;;;;;;;;;;;;12.37;75.21;100952.66;5111371;27;19915;-49
2022/09/16 04:11:30;;;;;;;;;;;;;;;12.38;75.75;100951.72;5129371;27;19930;-48
2022/09/16 04:13:56;;;;;;;;;;;;;;;12.39;75.16;100955.25;5131305;27;19919;-48
2022/09/16 04:16:21;;;;;;;;;;;;;;;12.39;75.26;100949.91;5123365;27;20052;-47
2022/09/16 04:18:47;;;;;;;;;;;;;;;12.38;75.71;100949.06;5116153;27;20286;-47
2022/09/16 04:21:12;;;;;;;;;;;;;;;12.38;75.75;100962.38;5118570;27;19920;-48
2022/09/16 04:23:37;;;;;;;;;;;;;;;12.37;74.73;100957.16;5113488;28;19912;-49
2022/09/16 04:26:03;;;;;;;;;;;;;;;12.39;75.28;100971.25;5118700;27;19922;-46
2022/09/16 04:28:29;;;;;;;;;;;;;;;12.40;74.54;100956.94;5131724;27;20343;-47
2022/09/16 04:30:58;;;;;;;;;;;;;;;12.35;75.54;100956.38;5131296;27;19919;-47
2022/09/16 04:33:26;;;;;;;;;;;;;;;12.34;75.50;100965.38;5130125;27;19915;-47
2022/09/16 04:35:51;;;;;;;;;;;;;;;12.34;76.38;100963.53;5131611;27;19916;-48
2022/09/16 04:38:16;;;;;;;;;;;;;;;12.34;76.01;100971.53;5126920;27;19929;-47
2022/09/16 04:40:41;;;;;;;;;;;;;;;12.34;76.76;100978.69;5120223;27;19963;-47
2022/09/16 04:43:07;;;;;;;;;;;;;;;12.33;76.12;100975.19;5121329;27;19916;-47
2022/09/16 04:45:32;;;;;;;;;;;;;;;12.32;78.96;100968.13;5111334;27;20255;-48
2022/09/16 04:47:57;;;;;;;;;;;;;;;12.28;78.42;100966.63;5131020;27;19915;-47
2022/09/16 04:50:23;;;;;;;;;;;;;;;12.29;80.05;100963.00;5109949;27;20196;-46
2022/09/16 04:52:50;;;;;;;;;;;;;;;12.29;79.93;100947.00;5112396;27;19964;-47
2022/09/16 04:55:16;;;;;;;;;;;;;;;12.33;79.63;100950.31;5127805;27;20270;-47
2022/09/16 04:57:41;;;;;;;;;;;;;;;12.35;78.89;100940.38;5130451;27;19915;-48
2022/09/16 05:00:07;;;;;;;;;;;;;;;12.38;78.18;100951.72;5125706;27;20381;-48
2022/09/16 05:02:32;;;;;;;;;;;;;;;12.39;78.27;100956.09;5114897;27;19938;-48
2022/09/16 05:04:57;;;;;;;;;;;;;;;12.41;78.14;100953.28;5133347;27;19919;-47
2022/09/16 05:07:23;;;;;;;;;;;;;;;12.42;77.48;100953.22;5128475;27;19920;-51
2022/09/16 05:09:48;;;;;;;;;;;;;;;12.43;77.47;100962.06;5130303;27;20360;-50
2022/09/16 05:12:13;;;;;;;;;;;;;;;12.42;77.95;100957.69;5126621;27;19960;-48
2022/09/16 05:14:38;;;;;;;;;;;;;;;12.38;78.44;100959.72;5128611;27;19924;-49
2022/09/16 05:17:03;;;;;;;;;;;;;;;12.37;77.57;100958.00;5118732;28;19919;-47
2022/09/16 05:19:29;;;;;;;;;;;;;;;12.33;78.07;100959.19;5113159;28;20018;-48
2022/09/16 05:21:54;;;;;;;;;;;;;;;12.31;77.83;100969.09;5116937;28;20437;-47
2022/09/16 05:24:19;;;;;;;;;;;;;;;12.26;78.39;100969.41;5125636;28;19916;-48
2022/09/16 05:26:44;;;;;;;;;;;;;;;12.26;79.23;100973.88;5129553;28;20418;-49
2022/09/16 05:29:14;;;;;;;;;;;;;;;12.26;79.46;100980.09;5108526;28;19926;-47
2022/09/16 05:31:41;;;;;;;;;;;;;;;12.28;79.26;100977.31;5115441;28;20422;-48
2022/09/16 05:34:11;;;;;;;;;;;;;;;12.28;80.20;100974.63;5123479;28;20014;-47
2022/09/16 05:36:37;;;;;;;;;;;;;;;12.26;80.01;100972.09;5130368;28;19961;-49
2022/09/16 05:39:03;;;;;;;;;;;;;;;12.25;80.38;100978.34;5125411;28;20362;-48
2022/09/16 05:41:28;;;;;;;;;;;;;;;12.28;81.03;100979.97;5116489;28;19960;-50
2022/09/16 05:43:56;;;;;;;;;;;;;;;12.28;80.34;100970.16;5100614;28;19923;-52
2022/09/16 05:46:22;;;;;;;;;;;;;;;12.32;81.85;100970.78;5109898;28;19923;-52
2022/09/16 05:48:48;;;;;;;;;;;;;;;12.32;80.92;100976.13;5120965;27;19916;-48
2022/09/16 05:51:14;;;;;;;;;;;;;;;12.36;80.34;100974.13;5133907;27;19916;-49
2022/09/16 05:53:40;;;;;;;;;;;;;;;12.34;80.77;100971.53;5122011;27;20004;-47
2022/09/16 05:56:09;;;;;;;;;;;;;;;12.35;81.34;100973.25;5130953;27;20420;-50
2022/09/16 05:58:35;;;;;;;;;;;;;;;12.37;81.26;100979.34;5130018;27;19919;-49
2022/09/16 06:01:02;;;;;;;;;;;;;;;12.44;80.96;100966.41;5131490;27;19924;-49
2022/09/16 06:03:28;;;;;;;;;;;;;;;12.41;80.54;100967.50;5115992;28;19989;-47
2022/09/16 06:06:11;;;;;;;;;;;;;;;12.44;81.29;100963.75;5104521;27;19950;-50
2022/09/16 06:08:36;;;;;;;;;;;;;;;12.45;80.67;100963.66;5102201;27;19923;-47
2022/09/16 06:11:03;;;;;;;;;;;;;;;12.49;80.83;100967.81;5134317;27;19915;-50
2022/09/16 06:13:28;;;;;;;;;;;;;;;12.56;80.30;100975.38;5133391;27;19916;-48
2022/09/16 06:15:54;;;;;;;;;;;;;;;12.52;80.62;100976.56;5097510;28;20293;-51
2022/09/16 06:18:20;;;;;;;;;;;;;;;12.50;80.40;100985.56;5096807;27;19994;-51
2022/09/16 06:20:46;;;;;;;;;;;;;;;12.52;80.60;100977.44;5117470;27;19919;-50
2022/09/16 06:23:14;;;;;;;;;;;;;;;12.56;80.44;100986.94;5112365;27;19916;-47
2022/09/16 06:25:39;;;;;;;;;;;;;;;12.57;80.66;100977.97;5119665;27;20297;-50
2022/09/16 06:28:08;;;;;;;;;;;;;;;12.60;80.20;100991.09;5097600;28;19977;-50
2022/09/16 06:30:34;;;;;;;;;;;;;;;12.64;79.64;100983.72;5128011;27;19915;-48
2022/09/16 06:32:59;;;;;;;;;;;;;;;12.60;80.57;100991.09;5120067;27;19938;-49
2022/09/16 06:35:25;;;;;;;;;;;;;;;12.57;81.01;100985.13;5115527;28;20388;-51
2022/09/16 06:37:50;;;;;;;;;;;;;;;12.61;80.48;100989.28;5116804;27;19923;-52
2022/09/16 06:40:16;;;;;;;;;;;;;;;12.66;81.03;100987.16;5132169;27;20010;-52
2022/09/16 06:42:41;;;;;;;;;;;;;;;12.70;80.64;100991.31;5114789;27;20294;-49
2022/09/16 06:45:07;;;;;;;;;;;;;;;12.69;80.66;100990.44;5132753;27;19955;-50
2022/09/16 06:47:32;;;;;;;;;;;;;;;12.68;81.03;100998.59;5135528;27;19950;-49
2022/09/16 06:49:58;;;;;;;;;;;;;;;12.72;81.43;101000.06;5135832;27;19976;-48
2022/09/16 06:52:23;;;;;;;;;;;;;;;12.70;80.67;100999.31;5133195;27;19954;-49
2022/09/16 06:54:49;;;;;;;;;;;;;;;12.70;81.06;100999.31;5135296;27;19915;-49
2022/09/16 06:57:14;;;;;;;;;;;;;;;12.75;80.75;101004.34;5135585;27;19919;-48
2022/09/16 06:59:40;;;;;;;;;;;;;;;12.77;80.10;101005.94;5116070;27;19945;-49
2022/09/16 07:02:05;;;;;;;;;;;;;;;12.77;80.69;101003.28;5117095;27;19919;-48
2022/09/16 07:04:30;;;;;;;;;;;;;;;12.76;80.32;101006.88;5133661;27;20357;-48
2022/09/16 07:06:57;;;;;;;;;;;;;;;12.78;80.76;101001.44;5134729;27;20062;-48
2022/09/16 07:09:22;;;;;;;;;;;;;;;12.76;80.40;100998.88;5135438;27;19950;-48
2022/09/16 07:11:48;;;;;;;;;;;;;;;12.81;80.12;101002.09;5135244;27;19949;-47
2022/09/16 07:14:13;;;;;;;;;;;;;;;12.85;80.20;101002.72;5133367;27;19915;-46
2022/09/16 07:16:38;;;;;;;;;;;;;;;12.89;80.80;101002.41;5135016;27;19923;-47
2022/09/16 07:19:04;;;;;;;;;;;;;;;12.93;79.68;100998.56;5132765;27;19911;-47
2022/09/16 07:21:29;;;;;;;;;;;;;;;12.94;79.95;101000.28;5113730;28;19912;-46
2022/09/16 07:23:56;;;;;;;;;;;;;;;13.02;80.08;100994.38;5116658;27;20441;-48
2022/09/16 07:26:25;;;;;;;;;;;;;;;13.13;80.11;101005.16;5134129;27;19915;-47
2022/09/16 07:28:50;;;;;;;;;;;;;;;13.29;79.51;101010.28;5134988;27;20282;-47
2022/09/16 07:31:18;;;;;;;;;;;;;;;13.50;79.94;101007.00;5116443;27;19915;-47
2022/09/16 07:33:44;;;;;;;;;;;;;;;13.76;79.05;101018.47;5126759;27;19935;-47
2022/09/16 07:36:10;;;;;;;;;;;;;;;13.81;78.88;101019.00;5113735;28;19911;-48
2022/09/16 07:38:36;;;;;;;;;;;;;;;13.77;78.92;101020.19;5114247;28;19916;-49
2022/09/16 07:41:10;;;;;;;;;;;;;;;13.67;78.43;101009.31;5096069;28;19967;-46
2022/09/16 07:43:35;;;;;;;;;;;;;;;13.47;78.18;100988.53;5115223;27;20002;-48
2022/09/16 07:46:01;;;;;;;;;;;;;;;13.61;78.19;101020.44;5132978;27;20014;-47
2022/09/16 07:48:30;;;;;;;;;;;;;;;13.67;78.62;101019.16;5134740;27;19917;-47
2022/09/16 07:50:59;;;;;;;;;;;;;;;13.75;78.31;101027.47;5132350;27;20038;-48
2022/09/16 07:53:26;;;;;;;;;;;;;;;13.74;78.54;101029.28;5134494;27;20281;-52
2022/09/16 07:55:52;;;;;;;;;;;;;;;13.71;79.18;101017.97;5116094;27;19911;-48
2022/09/16 07:58:17;;;;;;;;;;;;;;;13.62;78.70;101015.00;5115808;27;20285;-49
2022/09/16 08:00:42;;;;;;;;;;;;;;;13.55;79.16;101021.75;5115646;27;19923;-49
2022/09/16 08:03:08;;;;;;;;;;;;;;;13.52;79.72;101030.00;5106424;28;19917;-48
2022/09/16 08:05:34;;;;;;;;;;;;;;;13.50;79.65;101033.72;5113457;28;19965;-49
2022/09/16 08:07:59;;;;;;;;;;;;;;;13.56;79.64;101036.84;5113187;28;19911;-47
2022/09/16 08:10:24;;;;;;;;;;;;;;;13.75;80.49;101040.84;5113426;28;19919;-49
2022/09/16 08:12:50;;;;;;;;;;;;;;;13.89;78.93;101039.81;5095542;27;19919;-47
2022/09/16 08:15:15;;;;;;;;;;;;;;;14.11;80.24;101037.25;5113743;27;19911;-47
2022/09/16 08:17:41;;;;;;;;;;;;;;;14.33;80.14;101036.50;5113030;28;19919;-47
2022/09/16 08:20:06;;;;;;;;;;;;;;;14.49;78.89;101042.38;5113193;28;19916;-48
2022/09/16 08:22:32;;;;;;;;;;;;;;;14.64;79.49;101037.69;5113014;28;20010;-49
2022/09/16 08:24:58;;;;;;;;;;;;;;;14.96;79.06;101039.69;5114219;27;19923;-50
2022/09/16 08:27:23;;;;;;;;;;;;;;;15.15;78.02;101039.97;5113258;28;19912;-49
2022/09/16 08:29:48;;;;;;;;;;;;;;;15.16;77.13;101043.47;5113361;28;19955;-47
2022/09/16 08:32:14;;;;;;;;;;;;;;;15.11;76.69;101048.34;5094452;28;19916;-48
2022/09/16 08:34:39;;;;;;;;;;;;;;;14.97;76.59;101047.63;5119124;27;19923;-48
2022/09/16 08:37:05;;;;;;;;;;;;;;;14.92;76.75;101044.44;5133226;27;19915;-48
2022/09/16 08:39:30;;;;;;;;;;;;;;;14.92;76.79;101054.31;5115587;27;19916;-52
2022/09/16 08:42:08;;;;;;;;;;;;;;;14.85;76.61;101045.03;5133522;27;19957;-47
2022/09/16 08:44:33;;;;;;;;;;;;;;;15.05;76.61;101043.47;5113512;27;20373;-47
2022/09/16 08:47:00;;;;;;;;;;;;;;;15.37;76.72;101044.44;5133129;27;20213;-46
2022/09/16 08:49:38;;;;;;;;;;;;;;;15.75;75.43;101042.34;5133386;27;19968;-49
2022/09/16 08:52:23;;;;;;;;;;;;;;;15.99;74.31;101039.47;5133315;27;19911;-50
2022/09/16 08:54:53;;;;;;;;;;;;;;;16.33;72.57;101050.94;5103941;27;19911;-52
2022/09/16 08:57:23;;;;;;;;;;;;;;;16.53;72.43;101041.19;5132111;27;19922;-50
2022/09/16 08:59:58;;;;;;;;;;;;;;;16.64;71.08;101048.34;5118789;27;19967;-52
2022/09/16 09:02:42;;;;;;;;;;;;;;;16.63;69.73;101043.97;5111182;28;19919;-49
2022/09/16 09:05:13;;;;;;;;;;;;;;;16.58;69.45;101049.72;5112276;27;19916;-47
2022/09/16 09:07:41;;;;;;;;;;;;;;;16.44;67.43;101050.03;5114289;28;19945;-48
2022/09/16 09:10:06;;;;;;;;;;;;;;;16.36;69.37;101048.00;5094279;28;19919;-50
2022/09/16 09:12:37;;;;;;;;;;;;;;;16.47;68.73;101052.44;5094394;28;19912;-49
2022/09/16 09:15:09;;;;;;;;;;;;;;;16.52;68.43;101048.38;5112565;28;19937;-47
2022/09/16 09:17:40;;;;;;;;;;;;;;;16.30;68.42;101043.16;5113342;27;19923;-46
2022/09/16 09:20:15;;;;;;;;;;;;;;;16.19;66.65;101048.56;5112481;28;19916;-47
2022/09/16 09:22:59;;;;;;;;;;;;;;;16.04;67.68;101043.50;5111328;28;19911;-47
2022/09/16 09:25:31;;;;;;;;;;;;;;;15.87;67.29;101049.41;5106959;28;19916;-48
2022/09/16 09:28:02;;;;;;;;;;;;;;;15.94;68.00;101047.06;5132865;28;19915;-48
2022/09/16 09:30:29;;;;;;;;;;;;;;;16.22;66.95;101042.94;5132652;28;19955;-46
2022/09/16 09:33:13;;;;;;;;;;;;;;;16.48;65.63;101046.97;5114330;28;19919;-46
2022/09/16 09:35:39;;;;;;;;;;;;;;;16.65;65.71;101050.91;5125052;28;19971;-46
2022/09/16 09:38:23;;;;;;;;;;;;;;;16.54;63.81;101049.13;5113954;28;19916;-46
2022/09/16 09:40:53;;;;;;;;;;;;;;;16.52;65.52;101052.91;5132808;28;19930;-46
2022/09/16 09:43:18;;;;;;;;;;;;;;;16.90;66.04;101048.81;5132822;28;20418;-49
2022/09/16 09:45:43;;;;;;;;;;;;;;;17.07;64.93;101042.81;5112188;28;19924;-47
2022/09/16 09:48:23;;;;;;;;;;;;;;;16.99;64.25;101045.31;5132739;28;19936;-47
2022/09/16 09:50:50;;;;;;;;;;;;;;;17.08;62.89;101047.22;5090647;28;20275;-47
2022/09/16 09:53:27;;;;;;;;;;;;;;;17.27;63.91;101041.09;5091440;28;19923;-48
2022/09/16 09:56:18;;;;;;;;;;;;;;;17.40;63.16;101036.31;5091780;28;19913;-47
2022/09/16 09:58:49;;;;;;;;;;;;;;;17.34;62.85;101033.31;5075301;28;20015;-48
2022/09/16 10:01:15;;;;;;;;;;;;;;;17.29;63.70;101028.34;5091252;28;20415;-47
2022/09/16 10:03:41;;;;;;;;;;;;;;;17.36;61.57;101037.56;5090540;28;19912;-47
2022/09/16 10:06:06;;;;;;;;;;;;;;;17.30;63.56;101061.47;5091265;28;19919;-47
2022/09/16 10:08:37;;;;;;;;;;;;;;;17.00;63.84;101072.09;5107230;28;20371;-47
2022/09/16 10:11:13;;;;;;;;;;;;;;;16.38;63.31;101088.97;5093829;28;19912;-48
2022/09/16 10:13:46;;;;;;;;;;;;;;;15.50;65.05;101086.34;5111968;28;19923;-51
2022/09/16 10:16:14;;;;;;;;;;;;;;;14.85;68.01;101086.03;5111762;28;20347;-50
2022/09/16 10:18:40;;;;;;;;;;;;;;;14.36;70.33;101083.56;5120621;28;19915;-48
2022/09/16 10:21:10;;;;;;;;;;;;;;;14.05;70.69;101075.16;5102285;28;19926;-48
2022/09/16 10:23:37;;;;;;;;;;;;;;;13.92;70.63;101066.34;5115196;28;19931;-49
2022/09/16 10:26:15;;;;;;;;;;;;;;;13.86;71.00;101059.63;5117230;28;20000;-50
2022/09/16 10:28:41;;;;;;;;;;;;;;;13.78;72.32;101056.66;5112959;28;19915;-52
2022/09/16 10:31:07;;;;;;;;;;;;;;;13.76;71.76;101061.25;5126672;28;20849;-49
2022/09/16 10:33:41;;;;;;;;;;;;;;;13.63;71.87;101038.09;5106222;28;20404;-49
2022/09/16 10:36:10;;;;;;;;;;;;;;;13.84;71.53;101067.72;5100280;28;20483;-52
2022/09/16 10:38:37;;;;;;;;;;;;;;;13.85;71.39;101066.78;5119165;27;19927;-50
2022/09/16 10:41:07;;;;;;;;;;;;;;;13.93;71.40;101068.03;5105803;27;19923;-47
2022/09/16 10:43:34;;;;;;;;;;;;;;;14.04;71.20;101058.25;5115444;27;20362;-48
2022/09/16 10:46:00;;;;;;;;;;;;;;;14.21;70.85;101067.69;5096337;28;20320;-52
2022/09/16 10:48:26;;;;;;;;;;;;;;;14.46;71.88;101069.38;5114913;28;19916;-48
2022/09/16 10:50:53;;;;;;;;;;;;;;;14.84;71.68;101070.13;5125821;27;19915;-50
2022/09/16 10:53:38;;;;;;;;;;;;;;;15.11;69.99;101070.63;5104499;27;19915;-50
2022/09/16 10:56:15;;;;;;;;;;;;;;;15.10;70.61;101066.25;5121751;27;19915;-49
2022/09/16 10:58:40;;;;;;;;;;;;;;;15.11;71.35;101067.09;5104053;28;19930;-49
2022/09/16 11:01:12;;;;;;;;;;;;;;;15.09;71.87;101067.25;5115413;27;19923;-48
2022/09/16 11:03:40;;;;;;;;;;;;;;;15.02;72.33;101062.47;5114234;28;20003;-47
2022/09/16 11:06:05;;;;;;;;;;;;;;;14.98;72.13;101067.22;5116451;27;20059;-50
2022/09/16 11:08:49;;;;;;;;;;;;;;;14.99;72.92;101059.03;5115052;27;20292;-49
2022/09/16 11:11:23;;;;;;;;;;;;;;;14.88;72.72;101069.78;5099355;28;19922;-47
2022/09/16 11:14:01;;;;;;;;;;;;;;;14.88;73.19;101072.44;5113865;28;19915;-52
2022/09/16 11:16:26;;;;;;;;;;;;;;;14.83;73.66;101068.41;5114008;27;20282;-48
2022/09/16 11:18:56;;;;;;;;;;;;;;;14.81;73.69;101067.69;5135073;27;19911;-47
2022/09/16 11:21:36;;;;;;;;;;;;;;;14.76;74.17;101066.22;5118043;27;19924;-51
2022/09/16 11:24:20;;;;;;;;;;;;;;;14.85;74.54;101064.63;5135556;27;20320;-50
2022/09/16 11:26:58;;;;;;;;;;;;;;;15.02;75.13;101059.78;5109135;28;19916;-51
2022/09/16 11:29:23;;;;;;;;;;;;;;;15.43;74.40;101065.41;5114007;27;19964;-50
2022/09/16 11:31:54;;;;;;;;;;;;;;;16.28;74.00;101058.53;5102720;27;19919;-50
2022/09/16 11:34:29;;;;;;;;;;;;;;;17.56;71.98;101061.81;5113973;28;19942;-48
2022/09/16 11:37:02;;;;;;;;;;;;;;;18.90;68.93;101056.69;5129597;27;19957;-49
2022/09/16 11:39:30;;;;;;;;;;;;;;;20.15;67.47;101067.06;5116451;27;19915;-51
2022/09/16 11:42:16;;;;;;;;;;;;;;;21.61;59.03;101069.13;5114827;27;20378;-52
2022/09/16 11:44:45;;;;;;;;;;;;;;;22.55;61.73;101065.25;5087442;28;19922;-53
2022/09/16 11:47:11;;;;;;;;;;;;;;;23.77;58.21;101077.72;5120738;27;20331;-53
2022/09/16 11:49:55;;;;;;;;;;;;;;;24.04;51.04;101083.69;5134866;27;19911;-53
2022/09/16 11:52:32;;;;;;;;;;;;;;;23.08;51.84;101084.72;5093303;28;19928;-48
2022/09/16 11:55:17;;;;;;;;;;;;;;;22.14;51.12;101080.59;5093672;28;20014;-52
2022/09/16 11:57:47;;;;;;;;;;;;;;;21.12;53.85;101078.81;5112994;27;19922;-48
2022/09/16 12:00:18;;;;;;;;;;;;;;;20.39;54.66;101082.66;5125116;27;20428;-49
2022/09/16 12:02:48;;;;;;;;;;;;;;;19.81;56.56;101077.66;5113905;28;19973;-51
2022/09/16 12:05:18;;;;;;;;;;;;;;;19.25;57.44;101091.06;5116826;27;19922;-48
2022/09/16 12:07:43;;;;;;;;;;;;;;;18.69;58.14;101078.41;5127719;27;19915;-48
2022/09/16 12:10:18;;;;;;;;;;;;;;;17.98;59.38;101081.38;5113694;28;19912;-47
2022/09/16 12:12:46;;;;;;;;;;;;;;;17.57;60.61;101075.16;5095522;28;20289;-49
2022/09/16 12:15:24;;;;;;;;;;;;;;;17.38;63.68;101073.25;5129486;27;20396;-50
2022/09/16 12:18:13;;;;;;;;;;;;;;;18.49;64.20;101077.56;5114439;27;19923;-52
2022/09/16 12:20:44;;;;;;;;;;;;;;;20.29;58.31;101080.00;5100988;27;19937;-52
2022/09/16 12:23:25;;;;;;;;;;;;;;;20.04;57.82;101076.22;5126406;27;19995;-48
2022/09/16 12:25:54;;;;;;;;;;;;;;;19.59;56.01;101066.25;5133482;27;19918;-48
2022/09/16 12:28:28;;;;;;;;;;;;;;;19.31;56.73;101080.69;5111034;27;19930;-49
2022/09/16 12:31:16;;;;;;;;;;;;;;;18.81;58.12;101073.75;5115539;27;19915;-56
2022/09/16 12:33:56;;;;;;;;;;;;;;;18.53;61.10;101073.63;5113315;28;20375;-54
2022/09/16 12:36:29;;;;;;;;;;;;;;;18.87;58.13;101083.94;5106411;27;19927;-54
2022/09/16 12:38:56;;;;;;;;;;;;;;;18.57;57.21;101093.03;5122923;27;19915;-53
2022/09/16 12:41:40;;;;;;;;;;;;;;;18.33;57.17;101078.16;5112488;28;20032;-54
2022/09/16 12:44:05;;;;;;;;;;;;;;;17.89;58.72;101088.44;5112375;28;19942;-53
2022/09/16 12:46:33;;;;;;;;;;;;;;;17.36;59.14;101099.41;5113891;27;19916;-53